ETH855 HAAB-HTZA
Flight info
| Callsign | ETH855 |
|---|---|
| Flight time | 2h 23m |
| Altitude | 37000 |
| Route | IMKIT1A IMKIT UT129 ALEMU/N0460F380 UN301 MOV UM310 UVUKO |
| Aircraft | B38M/M-SDE1FGHILORVWXY/HB1 |
Departure
| Time | 2026-05-06 11:27 |
|---|---|
| Airport | Addis Ababa Bole International Airport (HAAB) |
Arrival
| Time | 2026-05-06 13:50 |
|---|---|
| Airport | Abeid Amani Karume International Airport (HTZA) |
| Time | Latitude | Longitude | Altitude | Speed | Heading |
|---|---|---|---|---|---|
| 2026-05-06 11:04 | 8.98170 | 38.79954 | 7623 ft | 0 kts | 163° |
| 2026-05-06 11:18 | 8.98193 | 38.79948 | 7623 ft | 4 kts | 168° |
| 2026-05-06 11:18 | 8.98220 | 38.79944 | 7623 ft | 4 kts | 178° |
| 2026-05-06 11:18 | 8.98246 | 38.79947 | 7623 ft | 4 kts | 206° |
| 2026-05-06 11:18 | 8.98259 | 38.79959 | 7623 ft | 0 kts | 253° |
| 2026-05-06 11:21 | 8.98257 | 38.79952 | 7623 ft | 3 kts | 253° |
| 2026-05-06 11:22 | 8.98247 | 38.79920 | 7623 ft | 7 kts | 253° |
| 2026-05-06 11:22 | 8.98227 | 38.79851 | 7623 ft | 13 kts | 253° |
| 2026-05-06 11:22 | 8.98197 | 38.79747 | 7623 ft | 18 kts | 253° |
| 2026-05-06 11:22 | 8.98124 | 38.79639 | 7623 ft | 19 kts | 220° |
| 2026-05-06 11:23 | 8.98078 | 38.79519 | 7623 ft | 18 kts | 254° |
| 2026-05-06 11:23 | 8.98040 | 38.79395 | 7623 ft | 18 kts | 252° |
| 2026-05-06 11:23 | 8.98002 | 38.79272 | 7623 ft | 18 kts | 252° |
| 2026-05-06 11:23 | 8.97966 | 38.79149 | 7623 ft | 18 kts | 256° |
| 2026-05-06 11:24 | 8.97934 | 38.79025 | 7623 ft | 18 kts | 253° |
| 2026-05-06 11:24 | 8.97899 | 38.78903 | 7623 ft | 18 kts | 253° |
| 2026-05-06 11:24 | 8.97863 | 38.78781 | 7623 ft | 18 kts | 251° |
| 2026-05-06 11:24 | 8.97786 | 38.78753 | 7623 ft | 11 kts | 158° |
| 2026-05-06 11:25 | 8.97711 | 38.78777 | 7623 ft | 12 kts | 163° |
| 2026-05-06 11:25 | 8.97623 | 38.78803 | 7624 ft | 15 kts | 163° |
| 2026-05-06 11:25 | 8.97549 | 38.78744 | 7624 ft | 17 kts | 252° |
| 2026-05-06 11:25 | 8.97507 | 38.78611 | 7624 ft | 22 kts | 253° |
| 2026-05-06 11:26 | 8.97460 | 38.78453 | 7624 ft | 25 kts | 253° |
| 2026-05-06 11:26 | 8.97471 | 38.78313 | 7625 ft | 14 kts | 233° |
| 2026-05-06 11:26 | 8.97430 | 38.78351 | 7624 ft | 12 kts | 70° |
| 2026-05-06 11:26 | 8.97513 | 38.78591 | 7624 ft | 69 kts | 73° |
| 2026-05-06 11:27 | 8.97701 | 38.79265 | 7620 ft | 129 kts | 74° |
| 2026-05-06 11:27 | 8.98008 | 38.80303 | 7644 ft | 176 kts | 73° |
| 2026-05-06 11:27 | 8.98358 | 38.81581 | 8002 ft | 206 kts | 77° |
| 2026-05-06 11:27 | 8.98737 | 38.83015 | 8854 ft | 205 kts | 76° |
| 2026-05-06 11:28 | 8.99107 | 38.84380 | 9686 ft | 212 kts | 75° |
| 2026-05-06 11:28 | 8.99533 | 38.85903 | 10045 ft | 237 kts | 75° |
| 2026-05-06 11:28 | 8.99991 | 38.87560 | 10781 ft | 239 kts | 78° |
| 2026-05-06 11:28 | 8.99953 | 38.89208 | 11602 ft | 244 kts | 108° |
| 2026-05-06 11:29 | 8.98925 | 38.90594 | 12339 ft | 256 kts | 143° |
| 2026-05-06 11:29 | 8.97216 | 38.91197 | 13031 ft | 270 kts | 174° |
| 2026-05-06 11:29 | 8.95346 | 38.90866 | 13785 ft | 280 kts | 206° |
| 2026-05-06 11:29 | 8.93869 | 38.89585 | 14473 ft | 286 kts | 236° |
| 2026-05-06 11:30 | 8.92849 | 38.87844 | 15109 ft | 292 kts | 238° |
| 2026-05-06 11:30 | 8.91599 | 38.86206 | 15765 ft | 295 kts | 227° |
| 2026-05-06 11:30 | 8.90195 | 38.84664 | 16239 ft | 305 kts | 219° |
| 2026-05-06 11:30 | 8.88311 | 38.83632 | 16575 ft | 315 kts | 193° |
| 2026-05-06 11:31 | 8.86165 | 38.82977 | 16883 ft | 332 kts | 196° |
| 2026-05-06 11:31 | 8.83899 | 38.82219 | 17084 ft | 352 kts | 196° |
| 2026-05-06 11:31 | 8.81536 | 38.81418 | 17381 ft | 366 kts | 196° |
| 2026-05-06 11:31 | 8.79092 | 38.80586 | 17800 ft | 375 kts | 197° |
| 2026-05-06 11:32 | 8.76607 | 38.79741 | 18397 ft | 378 kts | 197° |
| 2026-05-06 11:32 | 8.74102 | 38.78892 | 18912 ft | 381 kts | 197° |
| 2026-05-06 11:32 | 8.71585 | 38.78040 | 19409 ft | 383 kts | 197° |
| 2026-05-06 11:32 | 8.69049 | 38.77181 | 19912 ft | 385 kts | 197° |
| 2026-05-06 11:33 | 8.66499 | 38.76314 | 20385 ft | 388 kts | 196° |
| 2026-05-06 11:33 | 8.63852 | 38.75851 | 20839 ft | 387 kts | 179° |
| 2026-05-06 11:33 | 8.61157 | 38.75942 | 21308 ft | 389 kts | 175° |
| 2026-05-06 11:33 | 8.58440 | 38.76090 | 21774 ft | 393 kts | 175° |
| 2026-05-06 11:34 | 8.55713 | 38.76261 | 22259 ft | 395 kts | 175° |
| 2026-05-06 11:34 | 8.52961 | 38.76438 | 22752 ft | 398 kts | 175° |
| 2026-05-06 11:34 | 8.50184 | 38.76625 | 23196 ft | 401 kts | 175° |
| 2026-05-06 11:34 | 8.47392 | 38.76817 | 23620 ft | 404 kts | 175° |
| 2026-05-06 11:35 | 8.44578 | 38.77010 | 24003 ft | 406 kts | 175° |
| 2026-05-06 11:35 | 8.41745 | 38.77203 | 24375 ft | 409 kts | 175° |
| 2026-05-06 11:35 | 8.38906 | 38.77391 | 24748 ft | 411 kts | 175° |
| 2026-05-06 11:35 | 8.36042 | 38.77589 | 25135 ft | 413 kts | 175° |
| 2026-05-06 11:36 | 8.33170 | 38.77791 | 25483 ft | 416 kts | 175° |
| 2026-05-06 11:36 | 8.30275 | 38.77991 | 25846 ft | 418 kts | 175° |
| 2026-05-06 11:36 | 8.27401 | 38.78189 | 26224 ft | 420 kts | 175° |
| 2026-05-06 11:36 | 8.24475 | 38.78389 | 26584 ft | 423 kts | 175° |
| 2026-05-06 11:37 | 8.21526 | 38.78591 | 26914 ft | 426 kts | 175° |
| 2026-05-06 11:37 | 8.18567 | 38.78794 | 27276 ft | 428 kts | 175° |
| 2026-05-06 11:37 | 8.15551 | 38.79000 | 27644 ft | 430 kts | 175° |
| 2026-05-06 11:37 | 8.12595 | 38.79203 | 27980 ft | 432 kts | 175° |
| 2026-05-06 11:38 | 8.09587 | 38.79409 | 28320 ft | 435 kts | 175° |
| 2026-05-06 11:38 | 8.06561 | 38.79617 | 28654 ft | 437 kts | 176° |
| 2026-05-06 11:38 | 8.03520 | 38.79825 | 28998 ft | 439 kts | 176° |
| 2026-05-06 11:38 | 8.00464 | 38.80034 | 29314 ft | 441 kts | 176° |
| 2026-05-06 11:39 | 7.97397 | 38.80244 | 29638 ft | 444 kts | 175° |
| 2026-05-06 11:39 | 7.94310 | 38.80455 | 29944 ft | 446 kts | 175° |
| 2026-05-06 11:39 | 7.91206 | 38.80668 | 30205 ft | 448 kts | 176° |
| 2026-05-06 11:39 | 7.88088 | 38.80881 | 30451 ft | 450 kts | 176° |
| 2026-05-06 11:40 | 7.84950 | 38.81092 | 30710 ft | 452 kts | 176° |
| 2026-05-06 11:40 | 7.81811 | 38.81300 | 30973 ft | 454 kts | 176° |
| 2026-05-06 11:40 | 7.78647 | 38.81522 | 31207 ft | 457 kts | 176° |
| 2026-05-06 11:40 | 7.75472 | 38.81743 | 31474 ft | 458 kts | 176° |
| 2026-05-06 11:41 | 7.72284 | 38.81962 | 31730 ft | 460 kts | 176° |
| 2026-05-06 11:41 | 7.69078 | 38.82181 | 31978 ft | 462 kts | 176° |
| 2026-05-06 11:41 | 7.65860 | 38.82407 | 32218 ft | 464 kts | 176° |
| 2026-05-06 11:41 | 7.62632 | 38.82612 | 32464 ft | 466 kts | 176° |
| 2026-05-06 11:42 | 7.59390 | 38.82841 | 32691 ft | 468 kts | 176° |
| 2026-05-06 11:42 | 7.56128 | 38.83066 | 32922 ft | 471 kts | 176° |
| 2026-05-06 11:42 | 7.52854 | 38.83295 | 33127 ft | 473 kts | 176° |
| 2026-05-06 11:42 | 7.49564 | 38.83512 | 33383 ft | 474 kts | 176° |
| 2026-05-06 11:43 | 7.46262 | 38.83741 | 33580 ft | 477 kts | 176° |
| 2026-05-06 11:43 | 7.42968 | 38.84096 | 33885 ft | 476 kts | 167° |
| 2026-05-06 11:43 | 7.39797 | 38.85053 | 34192 ft | 476 kts | 163° |
| 2026-05-06 11:44 | 7.33466 | 38.86958 | 34726 ft | 475 kts | 163° |
| 2026-05-06 11:44 | 7.30300 | 38.87936 | 34911 ft | 476 kts | 163° |
| 2026-05-06 11:44 | 7.24037 | 38.89875 | 34960 ft | 472 kts | 163° |
| 2026-05-06 11:45 | 7.17748 | 38.91818 | 34971 ft | 473 kts | 163° |
| 2026-05-06 11:45 | 7.11421 | 38.93758 | 34971 ft | 472 kts | 163° |
| 2026-05-06 11:46 | 7.05184 | 38.95694 | 34978 ft | 472 kts | 163° |
| 2026-05-06 11:46 | 6.98869 | 38.97644 | 34987 ft | 472 kts | 163° |
| 2026-05-06 11:47 | 6.92591 | 38.99564 | 34979 ft | 471 kts | 162° |
| 2026-05-06 11:47 | 6.86358 | 39.01463 | 34988 ft | 472 kts | 162° |
| 2026-05-06 11:48 | 6.80090 | 39.03414 | 34973 ft | 472 kts | 162° |
| 2026-05-06 11:48 | 6.73821 | 39.05370 | 35002 ft | 472 kts | 163° |
| 2026-05-06 11:49 | 6.67550 | 39.07325 | 35004 ft | 472 kts | 163° |
| 2026-05-06 11:49 | 6.61263 | 39.09235 | 34998 ft | 472 kts | 163° |
| 2026-05-06 11:50 | 6.54977 | 39.11173 | 34997 ft | 472 kts | 162° |
| 2026-05-06 11:50 | 6.48691 | 39.13107 | 34990 ft | 472 kts | 162° |
| 2026-05-06 11:51 | 6.42405 | 39.15042 | 34986 ft | 473 kts | 162° |
| 2026-05-06 11:51 | 6.36102 | 39.16976 | 34967 ft | 473 kts | 162° |
| 2026-05-06 11:52 | 6.29799 | 39.18919 | 34964 ft | 473 kts | 162° |
| 2026-05-06 11:52 | 6.23491 | 39.20850 | 34953 ft | 474 kts | 162° |
| 2026-05-06 11:53 | 6.17188 | 39.22798 | 34945 ft | 474 kts | 163° |
| 2026-05-06 11:53 | 6.10880 | 39.24730 | 34940 ft | 474 kts | 162° |
| 2026-05-06 11:54 | 6.04565 | 39.26660 | 34931 ft | 474 kts | 162° |
| 2026-05-06 11:54 | 5.99329 | 39.28274 | 34908 ft | 473 kts | 162° |
| 2026-05-06 11:55 | 5.93033 | 39.30219 | 34915 ft | 474 kts | 162° |
| 2026-05-06 11:55 | 5.86723 | 39.32133 | 34908 ft | 473 kts | 162° |
| 2026-05-06 11:56 | 5.80430 | 39.34072 | 34918 ft | 474 kts | 162° |
| 2026-05-06 11:56 | 5.74130 | 39.36017 | 34902 ft | 473 kts | 161° |
| 2026-05-06 11:57 | 5.67851 | 39.37948 | 34905 ft | 472 kts | 162° |
| 2026-05-06 11:57 | 5.61442 | 39.39368 | 34904 ft | 472 kts | 169° |
| 2026-05-06 11:58 | 5.54964 | 39.40485 | 34890 ft | 472 kts | 170° |
| 2026-05-06 11:58 | 5.48489 | 39.41581 | 34892 ft | 471 kts | 169° |
| 2026-05-06 11:59 | 5.42013 | 39.42665 | 34879 ft | 472 kts | 169° |
| 2026-05-06 11:59 | 5.35544 | 39.43761 | 34882 ft | 471 kts | 169° |
| 2026-05-06 12:00 | 5.29076 | 39.44840 | 34884 ft | 471 kts | 169° |
| 2026-05-06 12:00 | 5.22618 | 39.45937 | 34877 ft | 471 kts | 169° |
| 2026-05-06 12:01 | 5.16164 | 39.47024 | 34873 ft | 470 kts | 169° |
| 2026-05-06 12:01 | 5.09708 | 39.48111 | 34869 ft | 470 kts | 169° |
| 2026-05-06 12:02 | 5.03256 | 39.49198 | 34867 ft | 470 kts | 169° |
| 2026-05-06 12:02 | 4.96809 | 39.50283 | 34865 ft | 470 kts | 169° |
| 2026-05-06 12:03 | 4.90368 | 39.51367 | 34861 ft | 469 kts | 169° |
| 2026-05-06 12:03 | 4.83926 | 39.52451 | 34854 ft | 469 kts | 169° |
| 2026-05-06 12:04 | 4.77482 | 39.53535 | 34855 ft | 470 kts | 169° |
| 2026-05-06 12:04 | 4.71037 | 39.54619 | 34861 ft | 470 kts | 169° |
| 2026-05-06 12:05 | 4.64575 | 39.55706 | 34864 ft | 471 kts | 169° |
| 2026-05-06 12:05 | 4.58158 | 39.56785 | 34867 ft | 471 kts | 169° |
| 2026-05-06 12:06 | 4.51687 | 39.57873 | 34872 ft | 472 kts | 169° |
| 2026-05-06 12:06 | 4.45215 | 39.58961 | 34877 ft | 472 kts | 169° |
| 2026-05-06 12:07 | 4.38741 | 39.60049 | 34885 ft | 472 kts | 169° |
| 2026-05-06 12:07 | 4.32262 | 39.61138 | 34889 ft | 472 kts | 170° |
| 2026-05-06 12:08 | 4.25783 | 39.62221 | 34895 ft | 472 kts | 171° |
| 2026-05-06 12:08 | 4.19296 | 39.63282 | 34885 ft | 472 kts | 169° |
| 2026-05-06 12:09 | 4.12833 | 39.64399 | 34902 ft | 472 kts | 170° |
| 2026-05-06 12:09 | 4.06356 | 39.65489 | 34902 ft | 472 kts | 170° |
| 2026-05-06 12:10 | 3.99894 | 39.66604 | 34897 ft | 471 kts | 168° |
| 2026-05-06 12:10 | 3.93459 | 39.67833 | 34901 ft | 471 kts | 169° |
| 2026-05-06 12:11 | 3.87059 | 39.69043 | 34905 ft | 471 kts | 169° |
| 2026-05-06 12:11 | 3.80624 | 39.70258 | 34906 ft | 471 kts | 169° |
| 2026-05-06 12:12 | 3.74194 | 39.71471 | 34903 ft | 470 kts | 169° |
| 2026-05-06 12:12 | 3.67766 | 39.72685 | 34903 ft | 470 kts | 169° |
| 2026-05-06 12:13 | 3.61346 | 39.73897 | 34904 ft | 470 kts | 169° |
| 2026-05-06 12:13 | 3.54912 | 39.75111 | 34900 ft | 470 kts | 169° |
| 2026-05-06 12:14 | 3.48492 | 39.76322 | 34902 ft | 470 kts | 169° |
| 2026-05-06 12:14 | 3.42075 | 39.77533 | 34900 ft | 469 kts | 169° |
| 2026-05-06 12:15 | 3.35655 | 39.78744 | 34897 ft | 469 kts | 169° |
| 2026-05-06 12:15 | 3.29241 | 39.79953 | 34896 ft | 469 kts | 169° |
| 2026-05-06 12:16 | 3.22832 | 39.81162 | 34896 ft | 469 kts | 169° |
| 2026-05-06 12:16 | 3.16417 | 39.82372 | 34893 ft | 469 kts | 169° |
| 2026-05-06 12:17 | 3.10013 | 39.83579 | 34890 ft | 468 kts | 169° |
| 2026-05-06 12:17 | 3.03606 | 39.84787 | 34894 ft | 468 kts | 169° |
| 2026-05-06 12:18 | 2.97202 | 39.85994 | 34890 ft | 468 kts | 169° |
| 2026-05-06 12:18 | 2.90796 | 39.87201 | 34890 ft | 468 kts | 169° |
| 2026-05-06 12:19 | 2.84395 | 39.88407 | 34885 ft | 468 kts | 169° |
| 2026-05-06 12:19 | 2.77993 | 39.89614 | 34888 ft | 468 kts | 169° |
| 2026-05-06 12:20 | 2.71592 | 39.90820 | 34882 ft | 468 kts | 169° |
| 2026-05-06 12:20 | 2.65192 | 39.92025 | 34879 ft | 468 kts | 169° |
| 2026-05-06 12:21 | 2.58799 | 39.93229 | 34877 ft | 468 kts | 169° |
| 2026-05-06 12:21 | 2.52392 | 39.94372 | 34877 ft | 468 kts | 169° |
| 2026-05-06 12:22 | 2.45991 | 39.95514 | 34873 ft | 467 kts | 169° |
| 2026-05-06 12:22 | 2.39630 | 39.96649 | 34872 ft | 467 kts | 169° |
| 2026-05-06 12:23 | 2.33227 | 39.97787 | 34868 ft | 467 kts | 169° |
| 2026-05-06 12:23 | 2.26830 | 39.98936 | 34871 ft | 467 kts | 169° |
| 2026-05-06 12:24 | 2.20432 | 40.00078 | 34865 ft | 467 kts | 169° |
| 2026-05-06 12:24 | 2.14039 | 40.01219 | 34863 ft | 467 kts | 169° |
| 2026-05-06 12:25 | 2.07648 | 40.02359 | 34861 ft | 467 kts | 169° |
| 2026-05-06 12:25 | 2.01252 | 40.03501 | 34849 ft | 467 kts | 169° |
| 2026-05-06 12:26 | 1.94861 | 40.04628 | 34851 ft | 466 kts | 169° |
| 2026-05-06 12:26 | 1.88471 | 40.05779 | 34828 ft | 467 kts | 169° |
| 2026-05-06 12:27 | 1.82086 | 40.06921 | 34827 ft | 466 kts | 169° |
| 2026-05-06 12:27 | 1.75689 | 40.08029 | 34823 ft | 466 kts | 174° |
| 2026-05-06 12:28 | 1.72455 | 40.07976 | 34834 ft | 465 kts | 185° |
| 2026-05-06 12:28 | 1.69223 | 40.07693 | 34815 ft | 467 kts | 184° |
| 2026-05-06 12:28 | 1.62741 | 40.07156 | 34825 ft | 467 kts | 184° |
| 2026-05-06 12:29 | 1.56264 | 40.06577 | 34832 ft | 468 kts | 185° |
| 2026-05-06 12:29 | 1.49787 | 40.05992 | 34835 ft | 467 kts | 185° |
| 2026-05-06 12:30 | 1.43317 | 40.05408 | 34844 ft | 467 kts | 184° |
| 2026-05-06 12:30 | 1.36837 | 40.04815 | 34834 ft | 468 kts | 185° |
| 2026-05-06 12:31 | 1.30367 | 40.04237 | 34833 ft | 467 kts | 184° |
| 2026-05-06 12:31 | 1.23890 | 40.03652 | 34836 ft | 467 kts | 185° |
| 2026-05-06 12:32 | 1.17415 | 40.03067 | 34836 ft | 467 kts | 185° |
| 2026-05-06 12:32 | 1.10952 | 40.02483 | 34836 ft | 467 kts | 185° |
| 2026-05-06 12:33 | 1.04479 | 40.01898 | 34836 ft | 466 kts | 185° |
| 2026-05-06 12:33 | 0.98018 | 40.01313 | 34839 ft | 466 kts | 184° |
| 2026-05-06 12:34 | 0.91591 | 40.00742 | 34819 ft | 466 kts | 185° |
| 2026-05-06 12:34 | 0.85129 | 40.00162 | 34828 ft | 466 kts | 185° |
| 2026-05-06 12:35 | 0.78673 | 39.99584 | 34830 ft | 466 kts | 184° |
| 2026-05-06 12:35 | 0.72217 | 39.99004 | 34830 ft | 466 kts | 185° |
| 2026-05-06 12:36 | 0.65762 | 39.98423 | 34826 ft | 466 kts | 184° |
| 2026-05-06 12:36 | 0.59309 | 39.97851 | 34825 ft | 466 kts | 185° |
| 2026-05-06 12:37 | 0.52856 | 39.97274 | 34826 ft | 465 kts | 185° |
| 2026-05-06 12:37 | 0.46405 | 39.96679 | 34813 ft | 466 kts | 184° |
| 2026-05-06 12:38 | 0.39950 | 39.96118 | 34827 ft | 466 kts | 185° |
| 2026-05-06 12:38 | 0.33496 | 39.95545 | 34825 ft | 466 kts | 185° |
| 2026-05-06 12:39 | 0.27038 | 39.94944 | 34830 ft | 466 kts | 184° |
| 2026-05-06 12:39 | 0.20578 | 39.94385 | 34832 ft | 466 kts | 185° |
| 2026-05-06 12:40 | 0.14106 | 39.93807 | 34828 ft | 467 kts | 185° |
| 2026-05-06 12:40 | 0.07641 | 39.93216 | 34829 ft | 467 kts | 186° |
| 2026-05-06 12:41 | 0.02259 | 39.92739 | 34833 ft | 467 kts | 185° |
| 2026-05-06 12:41 | -0.05311 | 39.92070 | 34840 ft | 467 kts | 185° |
| 2026-05-06 12:42 | -0.10692 | 39.91588 | 34839 ft | 467 kts | 185° |
| 2026-05-06 12:42 | -0.17160 | 39.91010 | 34838 ft | 467 kts | 185° |
| 2026-05-06 12:43 | -0.23626 | 39.90431 | 34840 ft | 466 kts | 185° |
| 2026-05-06 12:43 | -0.30095 | 39.89847 | 34841 ft | 467 kts | 185° |
| 2026-05-06 12:44 | -0.36570 | 39.89414 | 34848 ft | 466 kts | 183° |
| 2026-05-06 12:44 | -0.43044 | 39.88991 | 34841 ft | 466 kts | 183° |
| 2026-05-06 12:45 | -0.49516 | 39.88565 | 34841 ft | 466 kts | 183° |
| 2026-05-06 12:46 | -0.59223 | 39.87926 | 34842 ft | 466 kts | 183° |
| 2026-05-06 12:46 | -0.65696 | 39.87500 | 34846 ft | 466 kts | 183° |
| 2026-05-06 12:47 | -0.72165 | 39.87074 | 34850 ft | 466 kts | 183° |
| 2026-05-06 12:47 | -0.78592 | 39.86651 | 34852 ft | 466 kts | 183° |
| 2026-05-06 12:48 | -0.85056 | 39.86226 | 34854 ft | 466 kts | 183° |
| 2026-05-06 12:48 | -0.91520 | 39.85800 | 34856 ft | 465 kts | 183° |
| 2026-05-06 12:49 | -0.98028 | 39.85372 | 34867 ft | 466 kts | 183° |
| 2026-05-06 12:49 | -1.04454 | 39.84948 | 34853 ft | 465 kts | 183° |
| 2026-05-06 12:50 | -1.10910 | 39.84523 | 34862 ft | 465 kts | 183° |
| 2026-05-06 12:50 | -1.17379 | 39.84097 | 34865 ft | 465 kts | 183° |
| 2026-05-06 12:51 | -1.23837 | 39.83672 | 34861 ft | 465 kts | 183° |
| 2026-05-06 12:51 | -1.30297 | 39.83247 | 34865 ft | 466 kts | 182° |
| 2026-05-06 12:52 | -1.36769 | 39.82820 | 34864 ft | 466 kts | 182° |
| 2026-05-06 12:52 | -1.43234 | 39.82395 | 34864 ft | 465 kts | 182° |
| 2026-05-06 12:53 | -1.49700 | 39.81980 | 34869 ft | 465 kts | 182° |
| 2026-05-06 12:53 | -1.56159 | 39.81539 | 34864 ft | 466 kts | 182° |
| 2026-05-06 12:54 | -1.62628 | 39.81115 | 34868 ft | 466 kts | 183° |
| 2026-05-06 12:54 | -1.69101 | 39.80675 | 34881 ft | 466 kts | 182° |
| 2026-05-06 12:55 | -1.75575 | 39.80264 | 34871 ft | 466 kts | 182° |
| 2026-05-06 12:55 | -1.82042 | 39.79820 | 34873 ft | 466 kts | 183° |
| 2026-05-06 12:56 | -1.88513 | 39.79358 | 34878 ft | 466 kts | 182° |
| 2026-05-06 12:56 | -1.94992 | 39.78916 | 34881 ft | 466 kts | 182° |
| 2026-05-06 12:57 | -2.01469 | 39.78456 | 34866 ft | 467 kts | 182° |
| 2026-05-06 12:57 | -2.07951 | 39.78014 | 34865 ft | 467 kts | 182° |
| 2026-05-06 12:58 | -2.14435 | 39.77566 | 34874 ft | 468 kts | 183° |
| 2026-05-06 12:58 | -2.20883 | 39.77102 | 34869 ft | 468 kts | 182° |
| 2026-05-06 12:59 | -2.27418 | 39.76663 | 34877 ft | 468 kts | 182° |
| 2026-05-06 12:59 | -2.33873 | 39.76204 | 34884 ft | 469 kts | 183° |
| 2026-05-06 13:00 | -2.40369 | 39.75763 | 34868 ft | 468 kts | 182° |
| 2026-05-06 13:00 | -2.46863 | 39.75311 | 34874 ft | 468 kts | 182° |
| 2026-05-06 13:01 | -2.53361 | 39.74841 | 34885 ft | 468 kts | 182° |
| 2026-05-06 13:01 | -2.59856 | 39.74405 | 34876 ft | 468 kts | 182° |
| 2026-05-06 13:02 | -2.66346 | 39.73924 | 34871 ft | 468 kts | 182° |
| 2026-05-06 13:02 | -2.72838 | 39.73394 | 34870 ft | 468 kts | 182° |
| 2026-05-06 13:03 | -2.79325 | 39.72936 | 34883 ft | 468 kts | 182° |
| 2026-05-06 13:03 | -2.85815 | 39.72466 | 34880 ft | 468 kts | 182° |
| 2026-05-06 13:04 | -2.92311 | 39.71945 | 34877 ft | 468 kts | 183° |
| 2026-05-06 13:04 | -2.98805 | 39.71475 | 34878 ft | 468 kts | 182° |
| 2026-05-06 13:05 | -3.05293 | 39.70985 | 34871 ft | 467 kts | 182° |
| 2026-05-06 13:05 | -3.11784 | 39.70513 | 34878 ft | 468 kts | 184° |
| 2026-05-06 13:06 | -3.18268 | 39.70020 | 34882 ft | 468 kts | 182° |
| 2026-05-06 13:06 | -3.24757 | 39.69516 | 34878 ft | 468 kts | 181° |
| 2026-05-06 13:07 | -3.31243 | 39.69052 | 34889 ft | 468 kts | 183° |
| 2026-05-06 13:07 | -3.37734 | 39.68535 | 34887 ft | 468 kts | 184° |
| 2026-05-06 13:08 | -3.44182 | 39.68059 | 34864 ft | 468 kts | 182° |
| 2026-05-06 13:08 | -3.50671 | 39.67595 | 34886 ft | 468 kts | 182° |
| 2026-05-06 13:09 | -3.57158 | 39.67096 | 34880 ft | 468 kts | 182° |
| 2026-05-06 13:09 | -3.60398 | 39.66857 | 34893 ft | 468 kts | 182° |
| 2026-05-06 13:10 | -3.64085 | 39.66589 | 34881 ft | 468 kts | 182° |
| 2026-05-06 13:10 | -3.70573 | 39.66072 | 34901 ft | 467 kts | 182° |
| 2026-05-06 13:11 | -3.77058 | 39.65605 | 34889 ft | 467 kts | 182° |
| 2026-05-06 13:11 | -3.83544 | 39.65125 | 34887 ft | 467 kts | 182° |
| 2026-05-06 13:12 | -3.90029 | 39.64613 | 34883 ft | 467 kts | 182° |
| 2026-05-06 13:12 | -3.96482 | 39.63895 | 34855 ft | 461 kts | 190° |
| 2026-05-06 13:12 | -3.99596 | 39.63334 | 34655 ft | 450 kts | 188° |
| 2026-05-06 13:13 | -4.02674 | 39.62789 | 34130 ft | 449 kts | 188° |
| 2026-05-06 13:13 | -4.05745 | 39.62213 | 33473 ft | 450 kts | 189° |
| 2026-05-06 13:13 | -4.08823 | 39.61638 | 32900 ft | 448 kts | 189° |
| 2026-05-06 13:13 | -4.11884 | 39.61071 | 32405 ft | 445 kts | 189° |
| 2026-05-06 13:14 | -4.14911 | 39.60499 | 31942 ft | 442 kts | 190° |
| 2026-05-06 13:14 | -4.17919 | 39.59928 | 31470 ft | 438 kts | 189° |
| 2026-05-06 13:14 | -4.20911 | 39.59362 | 30980 ft | 436 kts | 189° |
| 2026-05-06 13:14 | -4.23885 | 39.58812 | 30468 ft | 435 kts | 189° |
| 2026-05-06 13:15 | -4.26857 | 39.58252 | 29965 ft | 434 kts | 189° |
| 2026-05-06 13:15 | -4.29820 | 39.57694 | 29429 ft | 431 kts | 189° |
| 2026-05-06 13:15 | -4.32763 | 39.57142 | 28887 ft | 429 kts | 189° |
| 2026-05-06 13:15 | -4.35681 | 39.56595 | 28451 ft | 425 kts | 189° |
| 2026-05-06 13:16 | -4.38574 | 39.56052 | 28028 ft | 421 kts | 189° |
| 2026-05-06 13:16 | -4.41437 | 39.55513 | 27585 ft | 418 kts | 189° |
| 2026-05-06 13:16 | -4.44282 | 39.54974 | 27153 ft | 414 kts | 189° |
| 2026-05-06 13:16 | -4.47104 | 39.54451 | 26710 ft | 411 kts | 188° |
| 2026-05-06 13:17 | -4.49906 | 39.53924 | 26278 ft | 408 kts | 189° |
| 2026-05-06 13:17 | -4.52686 | 39.53393 | 25861 ft | 405 kts | 188° |
| 2026-05-06 13:17 | -4.55448 | 39.52869 | 25443 ft | 403 kts | 189° |
| 2026-05-06 13:17 | -4.58161 | 39.52359 | 25038 ft | 401 kts | 188° |
| 2026-05-06 13:18 | -4.60897 | 39.51848 | 24617 ft | 399 kts | 188° |
| 2026-05-06 13:18 | -4.63615 | 39.51337 | 24224 ft | 397 kts | 188° |
| 2026-05-06 13:18 | -4.66324 | 39.50830 | 23822 ft | 395 kts | 188° |
| 2026-05-06 13:18 | -4.69019 | 39.50318 | 23420 ft | 393 kts | 189° |
| 2026-05-06 13:19 | -4.71697 | 39.49736 | 22843 ft | 394 kts | 191° |
| 2026-05-06 13:19 | -4.74361 | 39.49134 | 22452 ft | 390 kts | 191° |
| 2026-05-06 13:19 | -4.76998 | 39.48542 | 22093 ft | 386 kts | 191° |
| 2026-05-06 13:19 | -4.79606 | 39.47959 | 21725 ft | 382 kts | 191° |
| 2026-05-06 13:20 | -4.82187 | 39.47385 | 21337 ft | 379 kts | 191° |
| 2026-05-06 13:20 | -4.84750 | 39.46819 | 20964 ft | 376 kts | 191° |
| 2026-05-06 13:20 | -4.87290 | 39.46236 | 20583 ft | 373 kts | 191° |
| 2026-05-06 13:20 | -4.89814 | 39.45679 | 20221 ft | 370 kts | 191° |
| 2026-05-06 13:21 | -4.92321 | 39.45125 | 19844 ft | 368 kts | 191° |
| 2026-05-06 13:21 | -4.94817 | 39.44568 | 19472 ft | 366 kts | 192° |
| 2026-05-06 13:21 | -4.97300 | 39.44017 | 19110 ft | 366 kts | 191° |
| 2026-05-06 13:21 | -4.99781 | 39.43465 | 18754 ft | 364 kts | 192° |
| 2026-05-06 13:22 | -5.02251 | 39.42915 | 18383 ft | 363 kts | 192° |
| 2026-05-06 13:22 | -5.04706 | 39.42357 | 17990 ft | 361 kts | 192° |
| 2026-05-06 13:22 | -5.07147 | 39.41819 | 17597 ft | 358 kts | 192° |
| 2026-05-06 13:22 | -5.09569 | 39.41280 | 17232 ft | 355 kts | 192° |
| 2026-05-06 13:23 | -5.11972 | 39.40746 | 16867 ft | 352 kts | 192° |
| 2026-05-06 13:23 | -5.14355 | 39.40215 | 16511 ft | 349 kts | 192° |
| 2026-05-06 13:23 | -5.16715 | 39.39688 | 16162 ft | 346 kts | 192° |
| 2026-05-06 13:23 | -5.19063 | 39.39164 | 15810 ft | 344 kts | 192° |
| 2026-05-06 13:24 | -5.21389 | 39.38646 | 15470 ft | 341 kts | 192° |
| 2026-05-06 13:24 | -5.23698 | 39.38130 | 15117 ft | 339 kts | 193° |
| 2026-05-06 13:24 | -5.25996 | 39.37617 | 14773 ft | 337 kts | 193° |
| 2026-05-06 13:24 | -5.28277 | 39.37108 | 14432 ft | 335 kts | 193° |
| 2026-05-06 13:25 | -5.30545 | 39.36602 | 14084 ft | 333 kts | 193° |
| 2026-05-06 13:25 | -5.32800 | 39.36099 | 13745 ft | 331 kts | 193° |
| 2026-05-06 13:25 | -5.35042 | 39.35598 | 13363 ft | 329 kts | 193° |
| 2026-05-06 13:25 | -5.37269 | 39.35101 | 13003 ft | 327 kts | 193° |
| 2026-05-06 13:26 | -5.39482 | 39.34607 | 12658 ft | 324 kts | 193° |
| 2026-05-06 13:26 | -5.41672 | 39.34118 | 12321 ft | 321 kts | 193° |
| 2026-05-06 13:26 | -5.43849 | 39.33632 | 11990 ft | 319 kts | 193° |
| 2026-05-06 13:26 | -5.46003 | 39.33151 | 11654 ft | 316 kts | 193° |
| 2026-05-06 13:27 | -5.48142 | 39.32673 | 11326 ft | 314 kts | 193° |
| 2026-05-06 13:27 | -5.50262 | 39.32200 | 10997 ft | 311 kts | 192° |
| 2026-05-06 13:27 | -5.52370 | 39.31729 | 10675 ft | 309 kts | 192° |
| 2026-05-06 13:27 | -5.54466 | 39.31261 | 10342 ft | 308 kts | 192° |
| 2026-05-06 13:28 | -5.56543 | 39.30797 | 10112 ft | 302 kts | 192° |
| 2026-05-06 13:28 | -5.58566 | 39.30344 | 9958 ft | 295 kts | 192° |
| 2026-05-06 13:28 | -5.60562 | 39.29898 | 9639 ft | 294 kts | 192° |
| 2026-05-06 13:28 | -5.62555 | 39.29453 | 9292 ft | 292 kts | 192° |
| 2026-05-06 13:29 | -5.64511 | 39.29016 | 8969 ft | 291 kts | 192° |
| 2026-05-06 13:29 | -5.66501 | 39.28571 | 8651 ft | 289 kts | 192° |
| 2026-05-06 13:29 | -5.68452 | 39.28133 | 8342 ft | 286 kts | 192° |
| 2026-05-06 13:29 | -5.70369 | 39.27707 | 8021 ft | 285 kts | 192° |
| 2026-05-06 13:30 | -5.72292 | 39.27276 | 7715 ft | 283 kts | 192° |
| 2026-05-06 13:30 | -5.74206 | 39.26848 | 7407 ft | 281 kts | 192° |
| 2026-05-06 13:30 | -5.76106 | 39.26421 | 7101 ft | 279 kts | 191° |
| 2026-05-06 13:30 | -5.77995 | 39.25998 | 6796 ft | 277 kts | 191° |
| 2026-05-06 13:31 | -5.79866 | 39.25583 | 6491 ft | 275 kts | 192° |
| 2026-05-06 13:31 | -5.81127 | 39.25301 | 6273 ft | 274 kts | 192° |
| 2026-05-06 13:31 | -5.83589 | 39.24751 | 5830 ft | 273 kts | 192° |
| 2026-05-06 13:31 | -5.84840 | 39.24469 | 5630 ft | 272 kts | 192° |
| 2026-05-06 13:32 | -5.86681 | 39.24058 | 5320 ft | 270 kts | 191° |
| 2026-05-06 13:32 | -5.88511 | 39.23648 | 5027 ft | 268 kts | 191° |
| 2026-05-06 13:32 | -5.90046 | 39.23305 | 4945 ft | 259 kts | 191° |
| 2026-05-06 13:32 | -5.91769 | 39.22920 | 4943 ft | 248 kts | 191° |
| 2026-05-06 13:33 | -5.93409 | 39.22552 | 4950 ft | 235 kts | 191° |
| 2026-05-06 13:33 | -5.94966 | 39.22204 | 4935 ft | 223 kts | 191° |
| 2026-05-06 13:33 | -5.96459 | 39.21868 | 4921 ft | 218 kts | 191° |
| 2026-05-06 13:33 | -5.97920 | 39.21542 | 4917 ft | 218 kts | 191° |
| 2026-05-06 13:34 | -5.99397 | 39.21213 | 4914 ft | 218 kts | 191° |
| 2026-05-06 13:34 | -6.00878 | 39.20882 | 4901 ft | 218 kts | 191° |
| 2026-05-06 13:34 | -6.02351 | 39.20561 | 4917 ft | 217 kts | 187° |
| 2026-05-06 13:34 | -6.03840 | 39.20599 | 4916 ft | 214 kts | 174° |
| 2026-05-06 13:35 | -6.05336 | 39.20751 | 4944 ft | 217 kts | 173° |
| 2026-05-06 13:35 | -6.06835 | 39.20896 | 4916 ft | 216 kts | 173° |
| 2026-05-06 13:35 | -6.08332 | 39.21042 | 4897 ft | 216 kts | 174° |
| 2026-05-06 13:35 | -6.09830 | 39.21188 | 4913 ft | 217 kts | 173° |
| 2026-05-06 13:36 | -6.11329 | 39.21336 | 4914 ft | 216 kts | 174° |
| 2026-05-06 13:36 | -6.12824 | 39.21492 | 4919 ft | 216 kts | 173° |
| 2026-05-06 13:36 | -6.14320 | 39.21652 | 4904 ft | 216 kts | 173° |
| 2026-05-06 13:36 | -6.15816 | 39.21815 | 4896 ft | 216 kts | 173° |
| 2026-05-06 13:37 | -6.17317 | 39.21969 | 4899 ft | 218 kts | 173° |
| 2026-05-06 13:37 | -6.18823 | 39.22134 | 4921 ft | 218 kts | 173° |
| 2026-05-06 13:37 | -6.20326 | 39.22295 | 4891 ft | 217 kts | 173° |
| 2026-05-06 13:37 | -6.21858 | 39.22462 | 4927 ft | 230 kts | 173° |
| 2026-05-06 13:38 | -6.23520 | 39.22477 | 4890 ft | 247 kts | 178° |
| 2026-05-06 13:38 | -6.25201 | 39.22798 | 4726 ft | 246 kts | 156° |
| 2026-05-06 13:38 | -6.26731 | 39.23511 | 4646 ft | 242 kts | 148° |
| 2026-05-06 13:38 | -6.27886 | 39.24705 | 4594 ft | 240 kts | 118° |
| 2026-05-06 13:39 | -6.28302 | 39.26329 | 4621 ft | 244 kts | 96° |
| 2026-05-06 13:39 | -6.28256 | 39.28044 | 4592 ft | 246 kts | 87° |
| 2026-05-06 13:39 | -6.28100 | 39.29751 | 4582 ft | 246 kts | 86° |
| 2026-05-06 13:39 | -6.27941 | 39.31468 | 4585 ft | 246 kts | 87° |
| 2026-05-06 13:40 | -6.27765 | 39.33180 | 4583 ft | 246 kts | 82° |
| 2026-05-06 13:40 | -6.27024 | 39.34710 | 4566 ft | 250 kts | 46° |
| 2026-05-06 13:40 | -6.25487 | 39.35515 | 4576 ft | 257 kts | 10° |
| 2026-05-06 13:40 | -6.23688 | 39.35539 | 4596 ft | 261 kts | 357° |
| 2026-05-06 13:41 | -6.21882 | 39.35347 | 4586 ft | 262 kts | 352° |
| 2026-05-06 13:41 | -6.20101 | 39.35027 | 4369 ft | 261 kts | 351° |
| 2026-05-06 13:41 | -6.18316 | 39.34699 | 4042 ft | 262 kts | 351° |
| 2026-05-06 13:41 | -6.16538 | 39.34428 | 3900 ft | 253 kts | 353° |
| 2026-05-06 13:42 | -6.14832 | 39.34192 | 3850 ft | 242 kts | 354° |
| 2026-05-06 13:42 | -6.13171 | 39.33968 | 3811 ft | 244 kts | 354° |
| 2026-05-06 13:42 | -6.11443 | 39.33743 | 3767 ft | 254 kts | 354° |
| 2026-05-06 13:42 | -6.09672 | 39.33507 | 3721 ft | 258 kts | 354° |
| 2026-05-06 13:43 | -6.07887 | 39.33271 | 3676 ft | 258 kts | 354° |
| 2026-05-06 13:43 | -6.06107 | 39.33034 | 3624 ft | 258 kts | 353° |
| 2026-05-06 13:43 | -6.04330 | 39.32794 | 3587 ft | 258 kts | 354° |
| 2026-05-06 13:43 | -6.02571 | 39.32562 | 3524 ft | 258 kts | 353° |
| 2026-05-06 13:44 | -6.00891 | 39.31985 | 3437 ft | 257 kts | 324° |
| 2026-05-06 13:44 | -5.99838 | 39.30589 | 3344 ft | 253 kts | 285° |
| 2026-05-06 13:44 | -5.99584 | 39.28863 | 3350 ft | 246 kts | 268° |
| 2026-05-06 13:44 | -5.99862 | 39.27229 | 3315 ft | 230 kts | 246° |
| 2026-05-06 13:45 | -6.00487 | 39.25808 | 3301 ft | 216 kts | 243° |
| 2026-05-06 13:45 | -6.01634 | 39.23261 | 3379 ft | 185 kts | 242° |
| 2026-05-06 13:45 | -6.02152 | 39.22099 | 3380 ft | 180 kts | 239° |
| 2026-05-06 13:46 | -6.02986 | 39.21237 | 3238 ft | 169 kts | 201° |
| 2026-05-06 13:46 | -6.04103 | 39.20906 | 3171 ft | 169 kts | 186° |
| 2026-05-06 13:46 | -6.05284 | 39.20828 | 3011 ft | 170 kts | 175° |
| 2026-05-06 13:46 | -6.06471 | 39.20905 | 2825 ft | 171 kts | 173° |
| 2026-05-06 13:47 | -6.07655 | 39.21015 | 2587 ft | 171 kts | 172° |
| 2026-05-06 13:47 | -6.08832 | 39.21139 | 2386 ft | 170 kts | 172° |
| 2026-05-06 13:47 | -6.10007 | 39.21259 | 2163 ft | 169 kts | 172° |
| 2026-05-06 13:47 | -6.11179 | 39.21383 | 1952 ft | 169 kts | 173° |
| 2026-05-06 13:48 | -6.12319 | 39.21494 | 1753 ft | 160 kts | 172° |
| 2026-05-06 13:48 | -6.13386 | 39.21596 | 1605 ft | 150 kts | 172° |
| 2026-05-06 13:48 | -6.14424 | 39.21704 | 1380 ft | 150 kts | 174° |
| 2026-05-06 13:48 | -6.15464 | 39.21798 | 1177 ft | 156 kts | 174° |
| 2026-05-06 13:49 | -6.16559 | 39.21897 | 1006 ft | 157 kts | 173° |
| 2026-05-06 13:49 | -6.17645 | 39.22023 | 792 ft | 156 kts | 172° |
| 2026-05-06 13:49 | -6.18692 | 39.22119 | 578 ft | 147 kts | 171° |
| 2026-05-06 13:49 | -6.19693 | 39.22232 | 374 ft | 147 kts | 172° |
| 2026-05-06 13:50 | -6.20743 | 39.22344 | 198 ft | 153 kts | 172° |
| 2026-05-06 13:50 | -6.21739 | 39.22442 | 66 ft | 128 kts | 172° |
| 2026-05-06 13:50 | -6.22369 | 39.22512 | 59 ft | 57 kts | 173° |
| 2026-05-06 13:50 | -6.22632 | 39.22534 | 57 ft | 34 kts | 174° |
| 2026-05-06 13:51 | -6.22863 | 39.22561 | 59 ft | 29 kts | 173° |
| 2026-05-06 13:51 | -6.22974 | 39.22544 | 59 ft | 14 kts | 232° |
| 2026-05-06 13:51 | -6.22992 | 39.22486 | 56 ft | 9 kts | 258° |
| 2026-05-06 13:51 | -6.22987 | 39.22415 | 58 ft | 11 kts | 304° |
| 2026-05-06 13:52 | -6.22913 | 39.22390 | 57 ft | 12 kts | 351° |
| 2026-05-06 13:52 | -6.22824 | 39.22381 | 56 ft | 14 kts | 355° |
| 2026-05-06 13:52 | -6.22717 | 39.22371 | 59 ft | 17 kts | 354° |
| 2026-05-06 13:52 | -6.22590 | 39.22358 | 59 ft | 20 kts | 354° |
| 2026-05-06 13:53 | -6.22448 | 39.22342 | 60 ft | 22 kts | 353° |
| 2026-05-06 13:53 | -6.22299 | 39.22329 | 61 ft | 20 kts | 355° |
| 2026-05-06 13:53 | -6.22226 | 39.22321 | 54 ft | 8 kts | 352° |
| 2026-05-06 13:53 | -6.22185 | 39.22303 | 55 ft | 2 kts | 270° |
| 2026-05-06 13:54 | -6.22187 | 39.22281 | 62 ft | 5 kts | 262° |
| 2026-05-06 13:54 | -6.22191 | 39.22243 | 62 ft | 0 kts | 264° |